地図

経路データ

SID SEASON NUMBER BASIN SUBBASIN NAME ISO_TIME NATURE LAT LON WMO_WIND WMO_PRES WMO_AGENCY TRACK_TYPE DIST2LAND LANDFALL IFLAG USA_AGENCY USA_ATCF_ID USA_LAT USA_LON USA_RECORD USA_STATUS USA_WIND USA_PRES USA_SSHS USA_R34_NE USA_R34_SE USA_R34_SW USA_R34_NW USA_R50_NE USA_R50_SE USA_R50_SW USA_R50_NW USA_R64_NE USA_R64_SE USA_R64_SW USA_R64_NW USA_POCI USA_ROCI USA_RMW USA_EYE TOKYO_LAT TOKYO_LON TOKYO_GRADE TOKYO_WIND TOKYO_PRES TOKYO_R50_DIR TOKYO_R50_LONG TOKYO_R50_SHORT TOKYO_R30_DIR TOKYO_R30_LONG TOKYO_R30_SHORT TOKYO_LAND CMA_LAT CMA_LON CMA_CAT CMA_WIND CMA_PRES HKO_LAT HKO_LON HKO_CAT HKO_WIND HKO_PRES NEWDELHI_LAT NEWDELHI_LON NEWDELHI_GRADE NEWDELHI_WIND NEWDELHI_PRES NEWDELHI_CI NEWDELHI_DP NEWDELHI_POCI REUNION_LAT REUNION_LON REUNION_TYPE REUNION_WIND REUNION_PRES REUNION_TNUM REUNION_CI REUNION_RMW REUNION_R34_NE REUNION_R34_SE REUNION_R34_SW REUNION_R34_NW REUNION_R50_NE REUNION_R50_SE REUNION_R50_SW REUNION_R50_NW REUNION_R64_NE REUNION_R64_SE REUNION_R64_SW REUNION_R64_NW BOM_LAT BOM_LON BOM_TYPE BOM_WIND BOM_PRES BOM_TNUM BOM_CI BOM_RMW BOM_R34_NE BOM_R34_SE BOM_R34_SW BOM_R34_NW BOM_R50_NE BOM_R50_SE BOM_R50_SW BOM_R50_NW BOM_R64_NE BOM_R64_SE BOM_R64_SW BOM_R64_NW BOM_ROCI BOM_POCI BOM_EYE BOM_POS_METHOD BOM_PRES_METHOD NADI_LAT NADI_LON NADI_CAT NADI_WIND NADI_PRES WELLINGTON_LAT WELLINGTON_LON WELLINGTON_WIND WELLINGTON_PRES DS824_LAT DS824_LON DS824_STAGE DS824_WIND DS824_PRES TD9636_LAT TD9636_LON TD9636_STAGE TD9636_WIND TD9636_PRES TD9635_LAT TD9635_LON TD9635_WIND TD9635_PRES TD9635_ROCI NEUMANN_LAT NEUMANN_LON NEUMANN_CLASS NEUMANN_WIND NEUMANN_PRES MLC_LAT MLC_LON MLC_CLASS MLC_WIND MLC_PRES USA_GUST BOM_GUST BOM_GUST_PER REUNION_GUST REUNION_GUST_PER USA_SEAHGT USA_SEARAD_NE USA_SEARAD_SE USA_SEARAD_SW USA_SEARAD_NW STORM_SPEED STORM_DIR
1939255N24085 1939 61 NI BB NOT_NAMED 1939-09-12 00:00:00 TS 23.6000 84.9000 main 0 0 _________O____ -1 23.6000 84.9000 TC 30 0 0
1939255N24085 1939 61 NI BB NOT_NAMED 1939-09-12 03:00:00 TS 23.6000 84.9000 main 0 0 _________PO___ -1 23.6000 84.9000 TC 30 23.6000 84.9000 1 0 0
1939255N24085 1939 61 NI BB NOT_NAMED 1939-09-12 06:00:00 TS 23.6057 84.8851 main 0 0 _________OP___ -1 23.6000 84.9000 TC 30 23.6143 84.8628 1 0 0
1939255N24085 1939 61 NI BB NOT_NAMED 1939-09-12 09:00:00 TS 23.6098 84.8745 main 0 0 _________PP___ -1 23.6000 84.9000 TC 30 23.6229 84.8404 1 0 0
1939255N24085 1939 61 NI BB NOT_NAMED 1939-09-12 12:00:00 TS 23.6100 84.8739 main 0 0 _________OP___ -1 23.6000 84.9000 TC 30 23.6201 84.8479 1 0 0
1939255N24085 1939 61 NI BB NOT_NAMED 1939-09-12 15:00:00 TS 23.6000 84.9000 main 0 0 _________PO___ -1 23.6000 84.9000 TC 30 23.6000 84.9000 1 1 111
1939255N24085 1939 61 NI BB NOT_NAMED 1939-09-12 18:00:00 TS 23.5813 84.9484 main 0 0 _________OP___ -1 23.6000 84.9000 TC 30 23.5627 84.9968 1 1 113
1939255N24085 1939 61 NI BB NOT_NAMED 1939-09-12 21:00:00 TS 23.5542 85.0230 main 0 0 _________PP___ -1 23.5773 84.9673 TC 30 23.5310 85.0786 1 0 111
1939255N24085 1939 61 NI BB NOT_NAMED 1939-09-13 00:00:00 TS 23.5670 84.9856 main 0 0 _________OP___ -1 23.6000 84.9000 TC 30 23.5339 85.0712 1 3 290
1939255N24085 1939 61 NI BB NOT_NAMED 1939-09-13 03:00:00 TS 23.6524 84.7311 main 0 0 _________PO___ -1 23.7047 84.5621 TC 30 23.6000 84.9000 1 8 291
1939255N24085 1939 61 NI BB NOT_NAMED 1939-09-13 06:00:00 TS 23.8373 84.2209 main 0 0 _________OP___ -1 23.9000 84.0000 TC 30 23.7745 84.4418 1 12 292
1939255N24085 1939 61 NI BB NOT_NAMED 1939-09-13 09:00:00 TS 24.1045 83.5330 main 0 0 _________PP___ -1 24.2009 83.2434 TC 30 24.0081 83.8227 1 14 293
1939255N24085 1939 61 NI BB NOT_NAMED 1939-09-13 12:00:00 TS 24.3811 82.8209 main 0 0 _________OP___ -1 24.5000 82.5000 TC 30 24.2622 83.1418 1 12 293
1939255N24085 1939 61 NI BB NOT_NAMED 1939-09-13 15:00:00 TS 24.5859 82.2735 main 0 0 _________PO___ -1 24.6718 82.0469 TC 30 24.5000 82.5000 1 9 292
1939255N24085 1939 61 NI BB NOT_NAMED 1939-09-13 18:00:00 TS 24.7373 81.8647 main 0 0 _________OP___ -1 24.8000 81.7000 TC 30 24.6746 82.0295 1 8 292
1939255N24085 1939 61 NI BB NOT_NAMED 1939-09-13 21:00:00 TS 24.8931 81.4545 main 0 0 _________PP___ -1 24.9574 81.2925 TC 30 24.8287 81.6165 1 8 292
1939255N24085 1939 61 NI BB NOT_NAMED 1939-09-14 00:00:00 TS 25.0343 81.0727 main 0 0 _________OP___ -1 25.1000 80.9000 TC 30 24.9686 81.2453 1 7 291
1939255N24085 1939 61 NI BB NOT_NAMED 1939-09-14 03:00:00 TS 25.1500 80.7174 main 0 0 _________PO___ -1 25.1999 80.5348 TC 30 25.1000 80.9000 1 7 289
1939255N24085 1939 61 NI BB NOT_NAMED 1939-09-14 06:00:00 TS 25.2559 80.3643 main 0 0 _________OP___ -1 25.3000 80.2000 TC 30 25.2117 80.5286 1 7 290
1939255N24085 1939 61 NI BB NOT_NAMED 1939-09-14 09:00:00 TS 25.3774 80.0297 main 0 0 _________PP___ -1 25.4350 79.8775 TC 30 25.3199 80.1819 1 6 295
1939255N24085 1939 61 NI BB NOT_NAMED 1939-09-14 12:00:00 TS 25.5215 79.7346 main 0 0 _________OP___ -1 25.6000 79.6000 TC 30 25.4431 79.8693 1 6 303
1939255N24085 1939 61 NI BB NOT_NAMED 1939-09-14 15:00:00 TS 25.6887 79.4887 main 0 0 _________PO___ -1 25.7774 79.3774 TC 30 25.6000 79.6000 1 6 314
1939255N24085 1939 61 NI BB NOT_NAMED 1939-09-14 18:00:00 TS 25.9150 79.2829 main 0 0 _________OP___ -1 26.0000 79.2000 TC 30 25.8300 79.3658 1 6 326
1939255N24085 1939 61 NI BB NOT_NAMED 1939-09-14 21:00:00 TS 26.1998 79.1051 main 0 0 _________PP___ -1 26.3075 79.0351 TC 30 26.0922 79.1752 1 6 333
1939255N24085 1939 61 NI BB NOT_NAMED 1939-09-15 00:00:00 TS 26.4791 78.9610 main 0 0 _________OP___ -1 26.6000 78.9000 TC 30 26.3582 79.0220 1 5 334
1939255N24085 1939 61 NI BB NOT_NAMED 1939-09-15 03:00:00 TS 26.6862 78.8425 main 0 0 _________PO___ -1 26.7725 78.7849 TC 30 26.6000 78.9000 1 4 332
1939255N24085 1939 61 NI BB NOT_NAMED 1939-09-15 06:00:00 TS 26.8393 78.7419 main 0 0 _________OP___ -1 26.9000 78.7000 TC 30 26.7786 78.7837 1 3 332
1939255N24085 1939 61 NI BB NOT_NAMED 1939-09-15 09:00:00 TS 26.9899 78.6661 main 0 0 _________PP___ -1 27.0500 78.6350 TC 30 26.9299 78.6971 1 3 339
1939255N24085 1939 61 NI BB NOT_NAMED 1939-09-15 12:00:00 TS 27.1331 78.6185 main 0 0 _________OP___ -1 27.2000 78.6000 TC 30 27.0662 78.6370 1 3 349
1939255N24085 1939 61 NI BB NOT_NAMED 1939-09-15 15:00:00 TS 27.2750 78.5962 main 0 0 _________PO___ -1 27.3500 78.5925 TC 30 27.2000 78.6000 1 3 356
1939255N24085 1939 61 NI BB NOT_NAMED 1939-09-15 18:00:00 TS 27.4093 78.5900 main 0 0 _________OP___ -1 27.5000 78.6000 TC 30 27.3413 78.5826 1 3 356
1939255N24085 1939 61 NI BB NOT_NAMED 1939-09-15 21:00:00 TS 27.5540 78.5890 main 0 0 _________PP___ -1 27.6500 78.6025 TC 30 27.4900 78.5801 1 3 0
1939255N24085 1939 61 NI BB NOT_NAMED 1939-09-16 00:00:00 TS 27.6959 78.5917 main 0 0 _________OP___ -1 27.8000 78.6000 TC 30 27.6438 78.5875 1 2 5
1939255N24085 1939 61 NI BB NOT_NAMED 1939-09-16 03:00:00 NR 27.8000 78.6000 main 0 __________O___ -1 TC 27.8000 78.6000 1 2 6

IBTrACS Databaseについて

本データベースは、米国NOAAが公開する1842年以降の世界の熱帯低気圧のベストトラックデータアーカイブInternational Best Track Archive for Climate Stewardship (IBTrACS)を、ウェブで閲覧しやすい形式に変換したものです。

最終更新日:2021-12-06